ウルムチ の空港の天気 - METARとTAF

ウルムチ地窩堡国際空港 ( ZWWW / URC ) - 中華人民共和国 新疆ウイグル自治区ウルムチ市
飛行場実況気象(Metar)
観測時間03/29 05:00 CST (03/28 21:00 UTC)
風向・風速南 1m/s
視程6000m
天気現象
なし
気温2℃
湿度87%
気圧1024hPa
METARZWWW 282100Z 19001MPS 6000 NSC 02/00 Q1024 NOSIG
過去の天気等 Google飛行場航空写真 Wunderground天気予報

過去48時間のMETAR

飛行場予報(TAF)
発表時間: 3/28 23:14 CST (3/28 15:14 UTC)
予報対象時間: 29日2時 CST ~ 30日2時 CST
風向・風速南 2m/s
視程2,500m
天気現象もや
なし
29日10時 CST ~ 29日11時 CST に徐々に
風向・風速北 3m/s
視程3,500m
天気現象もや
29日20時 CST ~ 29日21時 CST に徐々に
風向・風速南 3m/s
TAF ZWWW 281514Z 2818/2918 18002MPS 2500 BR NSC TX08/2909Z TN00/2823Z
BECMG 2902/2903 36003MPS 3500 BR
BECMG 2912/2913 18003MPS